sensor_id;sensor_type;location;lat;lon;timestamp;P1;durP1;ratioP1;P2;durP2;ratioP2
59273;SDS011;45044;41.572;24.730;2024-02-28T00:00:16;12.00;;;6.30;;
59273;SDS011;45044;41.572;24.730;2024-02-28T00:02:43;9.80;;;6.00;;
59273;SDS011;45044;41.572;24.730;2024-02-28T00:05:10;11.27;;;7.38;;
59273;SDS011;45044;41.572;24.730;2024-02-28T00:07:37;9.15;;;5.28;;
59273;SDS011;45044;41.572;24.730;2024-02-28T00:10:04;11.32;;;5.00;;
59273;SDS011;45044;41.572;24.730;2024-02-28T00:12:31;9.52;;;4.90;;
59273;SDS011;45044;41.572;24.730;2024-02-28T00:14:58;12.25;;;5.68;;
59273;SDS011;45044;41.572;24.730;2024-02-28T00:17:24;10.50;;;6.05;;
59273;SDS011;45044;41.572;24.730;2024-02-28T00:19:52;11.40;;;5.93;;
59273;SDS011;45044;41.572;24.730;2024-02-28T00:22:19;12.10;;;7.22;;
59273;SDS011;45044;41.572;24.730;2024-02-28T00:24:45;18.45;;;8.25;;
59273;SDS011;45044;41.572;24.730;2024-02-28T00:27:13;18.10;;;8.88;;
59273;SDS011;45044;41.572;24.730;2024-02-28T00:29:40;12.57;;;6.72;;
59273;SDS011;45044;41.572;24.730;2024-02-28T00:32:06;12.65;;;5.97;;
59273;SDS011;45044;41.572;24.730;2024-02-28T00:34:33;14.13;;;6.78;;
59273;SDS011;45044;41.572;24.730;2024-02-28T00:37:00;16.77;;;8.25;;
59273;SDS011;45044;41.572;24.730;2024-02-28T00:39:27;18.98;;;10.45;;
59273;SDS011;45044;41.572;24.730;2024-02-28T00:41:54;26.40;;;11.90;;
59273;SDS011;45044;41.572;24.730;2024-02-28T00:44:20;53.05;;;20.58;;
59273;SDS011;45044;41.572;24.730;2024-02-28T00:46:47;35.65;;;15.77;;
59273;SDS011;45044;41.572;24.730;2024-02-28T00:49:14;28.08;;;14.73;;
59273;SDS011;45044;41.572;24.730;2024-02-28T00:51:41;34.97;;;14.80;;
59273;SDS011;45044;41.572;24.730;2024-02-28T00:54:07;39.42;;;17.30;;
59273;SDS011;45044;41.572;24.730;2024-02-28T00:56:34;38.60;;;17.03;;
59273;SDS011;45044;41.572;24.730;2024-02-28T00:59:01;33.20;;;14.65;;
59273;SDS011;45044;41.572;24.730;2024-02-28T01:01:29;24.38;;;13.45;;
59273;SDS011;45044;41.572;24.730;2024-02-28T01:04:00;16.45;;;6.65;;
59273;SDS011;45044;41.572;24.730;2024-02-28T01:06:26;22.40;;;10.80;;
59273;SDS011;45044;41.572;24.730;2024-02-28T01:08:54;22.77;;;11.38;;
59273;SDS011;45044;41.572;24.730;2024-02-28T01:11:21;21.02;;;9.50;;
59273;SDS011;45044;41.572;24.730;2024-02-28T01:13:47;20.52;;;8.50;;
59273;SDS011;45044;41.572;24.730;2024-02-28T01:16:14;31.43;;;13.60;;
59273;SDS011;45044;41.572;24.730;2024-02-28T01:18:43;32.23;;;12.80;;
59273;SDS011;45044;41.572;24.730;2024-02-28T01:21:09;42.80;;;18.35;;
59273;SDS011;45044;41.572;24.730;2024-02-28T01:23:36;37.17;;;15.67;;
59273;SDS011;45044;41.572;24.730;2024-02-28T01:26:03;33.78;;;13.07;;
59273;SDS011;45044;41.572;24.730;2024-02-28T01:28:31;31.17;;;12.60;;
59273;SDS011;45044;41.572;24.730;2024-02-28T01:30:58;58.55;;;19.55;;
59273;SDS011;45044;41.572;24.730;2024-02-28T01:33:28;103.80;;;36.63;;
59273;SDS011;45044;41.572;24.730;2024-02-28T01:35:54;71.45;;;28.85;;
59273;SDS011;45044;41.572;24.730;2024-02-28T01:38:25;38.73;;;19.47;;
59273;SDS011;45044;41.572;24.730;2024-02-28T01:40:53;25.60;;;14.47;;
59273;SDS011;45044;41.572;24.730;2024-02-28T01:43:19;30.07;;;15.93;;
59273;SDS011;45044;41.572;24.730;2024-02-28T01:45:46;21.80;;;10.90;;
59273;SDS011;45044;41.572;24.730;2024-02-28T01:48:13;20.00;;;9.97;;
59273;SDS011;45044;41.572;24.730;2024-02-28T01:50:40;14.67;;;7.43;;
59273;SDS011;45044;41.572;24.730;2024-02-28T01:53:08;10.33;;;5.97;;
59273;SDS011;45044;41.572;24.730;2024-02-28T01:55:36;12.07;;;5.80;;
59273;SDS011;45044;41.572;24.730;2024-02-28T01:58:03;18.27;;;8.23;;
59273;SDS011;45044;41.572;24.730;2024-02-28T02:00:37;46.70;;;20.08;;
59273;SDS011;45044;41.572;24.730;2024-02-28T02:03:06;38.10;;;14.77;;
59273;SDS011;45044;41.572;24.730;2024-02-28T02:05:32;62.60;;;22.27;;
59273;SDS011;45044;41.572;24.730;2024-02-28T02:07:59;63.35;;;24.23;;
59273;SDS011;45044;41.572;24.730;2024-02-28T02:10:28;51.50;;;18.37;;
59273;SDS011;45044;41.572;24.730;2024-02-28T02:12:55;34.67;;;13.15;;
59273;SDS011;45044;41.572;24.730;2024-02-28T02:15:30;18.33;;;8.13;;
59273;SDS011;45044;41.572;24.730;2024-02-28T02:17:57;20.13;;;8.67;;
59273;SDS011;45044;41.572;24.730;2024-02-28T02:20:25;24.40;;;11.93;;
59273;SDS011;45044;41.572;24.730;2024-02-28T02:22:59;28.37;;;12.83;;
59273;SDS011;45044;41.572;24.730;2024-02-28T02:25:26;55.30;;;25.07;;
59273;SDS011;45044;41.572;24.730;2024-02-28T02:27:53;43.00;;;19.57;;
59273;SDS011;45044;41.572;24.730;2024-02-28T02:30:20;44.97;;;19.70;;
59273;SDS011;45044;41.572;24.730;2024-02-28T02:32:47;34.23;;;17.03;;
59273;SDS011;45044;41.572;24.730;2024-02-28T02:35:14;27.63;;;9.87;;
59273;SDS011;45044;41.572;24.730;2024-02-28T02:37:44;21.50;;;11.03;;
59273;SDS011;45044;41.572;24.730;2024-02-28T02:40:14;28.95;;;13.88;;
59273;SDS011;45044;41.572;24.730;2024-02-28T02:42:42;21.90;;;11.38;;
59273;SDS011;45044;41.572;24.730;2024-02-28T02:45:09;10.70;;;5.50;;
59273;SDS011;45044;41.572;24.730;2024-02-28T02:47:35;11.70;;;5.80;;
59273;SDS011;45044;41.572;24.730;2024-02-28T02:50:03;11.50;;;5.50;;
59273;SDS011;45044;41.572;24.730;2024-02-28T02:52:30;13.40;;;5.63;;
59273;SDS011;45044;41.572;24.730;2024-02-28T02:54:57;12.07;;;5.10;;
59273;SDS011;45044;41.572;24.730;2024-02-28T02:57:24;10.23;;;4.77;;
59273;SDS011;45044;41.572;24.730;2024-02-28T02:59:50;19.93;;;7.83;;
59273;SDS011;45044;41.572;24.730;2024-02-28T03:02:17;9.60;;;4.60;;
59273;SDS011;45044;41.572;24.730;2024-02-28T03:04:44;14.87;;;6.60;;
59273;SDS011;45044;41.572;24.730;2024-02-28T03:07:11;11.03;;;5.07;;
59273;SDS011;45044;41.572;24.730;2024-02-28T03:09:37;14.73;;;6.60;;
59273;SDS011;45044;41.572;24.730;2024-02-28T03:12:04;12.77;;;7.07;;
59273;SDS011;45044;41.572;24.730;2024-02-28T03:14:31;17.00;;;7.47;;
59273;SDS011;45044;41.572;24.730;2024-02-28T03:16:58;21.03;;;10.27;;
59273;SDS011;45044;41.572;24.730;2024-02-28T03:19:24;24.53;;;12.87;;
59273;SDS011;45044;41.572;24.730;2024-02-28T03:21:51;34.40;;;18.87;;
59273;SDS011;45044;41.572;24.730;2024-02-28T03:24:18;33.57;;;17.13;;
59273;SDS011;45044;41.572;24.730;2024-02-28T03:26:45;33.97;;;20.20;;
59273;SDS011;45044;41.572;24.730;2024-02-28T03:29:12;31.90;;;16.93;;
59273;SDS011;45044;41.572;24.730;2024-02-28T03:31:38;20.10;;;11.33;;
59273;SDS011;45044;41.572;24.730;2024-02-28T03:34:07;17.37;;;8.50;;
59273;SDS011;45044;41.572;24.730;2024-02-28T03:36:35;16.20;;;8.20;;
59273;SDS011;45044;41.572;24.730;2024-02-28T03:39:01;17.13;;;8.80;;
59273;SDS011;45044;41.572;24.730;2024-02-28T03:41:29;24.53;;;11.37;;
59273;SDS011;45044;41.572;24.730;2024-02-28T03:43:55;18.17;;;8.10;;
59273;SDS011;45044;41.572;24.730;2024-02-28T03:46:22;17.57;;;8.37;;
59273;SDS011;45044;41.572;24.730;2024-02-28T03:48:49;11.60;;;7.83;;
59273;SDS011;45044;41.572;24.730;2024-02-28T03:51:16;12.93;;;7.87;;
59273;SDS011;45044;41.572;24.730;2024-02-28T03:53:43;15.47;;;8.33;;
59273;SDS011;45044;41.572;24.730;2024-02-28T03:56:10;16.67;;;8.97;;
59273;SDS011;45044;41.572;24.730;2024-02-28T03:58:39;15.40;;;8.63;;
59273;SDS011;45044;41.572;24.730;2024-02-28T04:01:06;14.53;;;7.77;;
59273;SDS011;45044;41.572;24.730;2024-02-28T04:03:33;14.87;;;8.30;;
59273;SDS011;45044;41.572;24.730;2024-02-28T04:05:59;16.80;;;8.20;;
59273;SDS011;45044;41.572;24.730;2024-02-28T04:08:26;13.83;;;7.23;;
59273;SDS011;45044;41.572;24.730;2024-02-28T04:10:53;16.10;;;9.43;;
59273;SDS011;45044;41.572;24.730;2024-02-28T04:13:20;14.23;;;8.73;;
59273;SDS011;45044;41.572;24.730;2024-02-28T04:15:47;13.33;;;7.00;;
59273;SDS011;45044;41.572;24.730;2024-02-28T04:18:13;15.27;;;6.97;;
59273;SDS011;45044;41.572;24.730;2024-02-28T04:20:40;13.40;;;6.63;;
59273;SDS011;45044;41.572;24.730;2024-02-28T04:23:07;10.73;;;6.40;;
59273;SDS011;45044;41.572;24.730;2024-02-28T04:25:33;13.07;;;6.23;;
59273;SDS011;45044;41.572;24.730;2024-02-28T04:28:01;13.93;;;7.23;;
59273;SDS011;45044;41.572;24.730;2024-02-28T04:30:28;11.30;;;6.40;;
59273;SDS011;45044;41.572;24.730;2024-02-28T04:32:55;12.53;;;7.83;;
59273;SDS011;45044;41.572;24.730;2024-02-28T04:35:22;31.43;;;16.73;;
59273;SDS011;45044;41.572;24.730;2024-02-28T04:37:49;21.13;;;12.63;;
59273;SDS011;45044;41.572;24.730;2024-02-28T04:40:15;18.93;;;11.97;;
59273;SDS011;45044;41.572;24.730;2024-02-28T04:42:42;24.97;;;12.93;;
59273;SDS011;45044;41.572;24.730;2024-02-28T04:45:09;17.97;;;10.97;;
59273;SDS011;45044;41.572;24.730;2024-02-28T04:47:36;29.97;;;15.17;;
59273;SDS011;45044;41.572;24.730;2024-02-28T04:50:10;32.33;;;16.67;;
59273;SDS011;45044;41.572;24.730;2024-02-28T04:52:37;30.00;;;17.50;;
59273;SDS011;45044;41.572;24.730;2024-02-28T04:55:04;31.60;;;16.23;;
59273;SDS011;45044;41.572;24.730;2024-02-28T04:57:31;27.27;;;14.73;;
59273;SDS011;45044;41.572;24.730;2024-02-28T04:59:58;30.90;;;17.27;;
59273;SDS011;45044;41.572;24.730;2024-02-28T05:02:24;22.55;;;16.13;;
59273;SDS011;45044;41.572;24.730;2024-02-28T05:04:52;26.00;;;17.00;;
59273;SDS011;45044;41.572;24.730;2024-02-28T05:07:19;27.13;;;17.87;;
59273;SDS011;45044;41.572;24.730;2024-02-28T05:09:45;14.27;;;8.27;;
59273;SDS011;45044;41.572;24.730;2024-02-28T05:12:12;14.43;;;8.53;;
59273;SDS011;45044;41.572;24.730;2024-02-28T05:14:39;20.63;;;11.47;;
59273;SDS011;45044;41.572;24.730;2024-02-28T05:17:06;19.63;;;11.93;;
59273;SDS011;45044;41.572;24.730;2024-02-28T05:19:32;22.90;;;12.93;;
59273;SDS011;45044;41.572;24.730;2024-02-28T05:22:01;22.33;;;12.33;;
59273;SDS011;45044;41.572;24.730;2024-02-28T05:24:28;23.23;;;13.43;;
59273;SDS011;45044;41.572;24.730;2024-02-28T05:26:55;22.73;;;12.47;;
59273;SDS011;45044;41.572;24.730;2024-02-28T05:29:22;20.17;;;12.90;;
59273;SDS011;45044;41.572;24.730;2024-02-28T05:31:49;16.33;;;11.53;;
59273;SDS011;45044;41.572;24.730;2024-02-28T05:34:15;22.47;;;13.03;;
59273;SDS011;45044;41.572;24.730;2024-02-28T05:36:43;19.40;;;12.90;;
59273;SDS011;45044;41.572;24.730;2024-02-28T05:39:09;20.23;;;12.20;;
59273;SDS011;45044;41.572;24.730;2024-02-28T05:41:36;21.30;;;13.43;;
59273;SDS011;45044;41.572;24.730;2024-02-28T05:44:03;75.78;;;34.25;;
59273;SDS011;45044;41.572;24.730;2024-02-28T05:46:30;64.80;;;33.92;;
59273;SDS011;45044;41.572;24.730;2024-02-28T05:48:57;63.70;;;31.92;;
59273;SDS011;45044;41.572;24.730;2024-02-28T05:51:24;49.00;;;27.60;;
59273;SDS011;45044;41.572;24.730;2024-02-28T05:53:51;39.77;;;24.13;;
59273;SDS011;45044;41.572;24.730;2024-02-28T05:56:17;63.03;;;32.92;;
59273;SDS011;45044;41.572;24.730;2024-02-28T05:58:46;73.20;;;38.42;;
59273;SDS011;45044;41.572;24.730;2024-02-28T06:01:17;76.95;;;44.75;;
59273;SDS011;45044;41.572;24.730;2024-02-28T06:03:45;92.88;;;50.10;;
59273;SDS011;45044;41.572;24.730;2024-02-28T06:06:15;94.70;;;47.40;;
59273;SDS011;45044;41.572;24.730;2024-02-28T06:08:42;83.38;;;46.15;;
59273;SDS011;45044;41.572;24.730;2024-02-28T06:11:09;86.90;;;48.88;;
59273;SDS011;45044;41.572;24.730;2024-02-28T06:13:39;74.03;;;42.38;;
59273;SDS011;45044;41.572;24.730;2024-02-28T06:16:07;70.25;;;41.08;;
59273;SDS011;45044;41.572;24.730;2024-02-28T06:18:34;93.35;;;47.92;;
59273;SDS011;45044;41.572;24.730;2024-02-28T06:21:00;80.07;;;44.10;;
59273;SDS011;45044;41.572;24.730;2024-02-28T06:23:28;93.32;;;48.53;;
59273;SDS011;45044;41.572;24.730;2024-02-28T06:25:56;99.65;;;51.17;;
59273;SDS011;45044;41.572;24.730;2024-02-28T06:28:23;117.10;;;56.85;;
59273;SDS011;45044;41.572;24.730;2024-02-28T06:30:51;97.93;;;53.90;;
59273;SDS011;45044;41.572;24.730;2024-02-28T06:33:18;99.57;;;52.65;;
59273;SDS011;45044;41.572;24.730;2024-02-28T06:35:45;114.75;;;64.63;;
59273;SDS011;45044;41.572;24.730;2024-02-28T06:38:12;108.45;;;64.68;;
59273;SDS011;45044;41.572;24.730;2024-02-28T06:40:39;107.40;;;63.60;;
59273;SDS011;45044;41.572;24.730;2024-02-28T06:43:06;87.85;;;58.47;;
59273;SDS011;45044;41.572;24.730;2024-02-28T06:45:33;96.45;;;61.65;;
59273;SDS011;45044;41.572;24.730;2024-02-28T06:48:01;104.28;;;70.55;;
59273;SDS011;45044;41.572;24.730;2024-02-28T06:50:28;80.18;;;56.70;;
59273;SDS011;45044;41.572;24.730;2024-02-28T06:52:55;72.50;;;52.10;;
59273;SDS011;45044;41.572;24.730;2024-02-28T06:55:21;70.20;;;48.80;;
59273;SDS011;45044;41.572;24.730;2024-02-28T06:57:48;51.00;;;37.92;;
59273;SDS011;45044;41.572;24.730;2024-02-28T07:00:16;57.60;;;40.10;;
59273;SDS011;45044;41.572;24.730;2024-02-28T07:02:45;57.97;;;43.00;;
59273;SDS011;45044;41.572;24.730;2024-02-28T07:05:12;53.10;;;40.10;;
59273;SDS011;45044;41.572;24.730;2024-02-28T07:07:39;51.78;;;38.50;;
59273;SDS011;45044;41.572;24.730;2024-02-28T07:10:06;50.17;;;38.38;;
59273;SDS011;45044;41.572;24.730;2024-02-28T07:12:34;50.33;;;36.88;;
59273;SDS011;45044;41.572;24.730;2024-02-28T07:15:01;37.60;;;29.25;;
59273;SDS011;45044;41.572;24.730;2024-02-28T07:17:28;31.63;;;23.45;;
59273;SDS011;45044;41.572;24.730;2024-02-28T07:19:56;31.40;;;19.88;;
59273;SDS011;45044;41.572;24.730;2024-02-28T07:22:22;27.50;;;20.48;;
59273;SDS011;45044;41.572;24.730;2024-02-28T07:24:56;24.48;;;18.77;;
59273;SDS011;45044;41.572;24.730;2024-02-28T07:27:23;17.55;;;12.68;;
59273;SDS011;45044;41.572;24.730;2024-02-28T07:29:54;14.32;;;7.25;;
59273;SDS011;45044;41.572;24.730;2024-02-28T07:32:20;23.48;;;15.50;;
59273;SDS011;45044;41.572;24.730;2024-02-28T07:34:47;15.85;;;10.30;;
59273;SDS011;45044;41.572;24.730;2024-02-28T07:37:14;14.75;;;10.35;;
59273;SDS011;45044;41.572;24.730;2024-02-28T07:39:41;12.07;;;7.68;;
59273;SDS011;45044;41.572;24.730;2024-02-28T07:42:08;12.00;;;7.53;;
59273;SDS011;45044;41.572;24.730;2024-02-28T07:44:34;14.68;;;9.25;;
59273;SDS011;45044;41.572;24.730;2024-02-28T07:47:01;18.00;;;11.90;;
59273;SDS011;45044;41.572;24.730;2024-02-28T07:49:28;14.25;;;10.18;;
59273;SDS011;45044;41.572;24.730;2024-02-28T07:51:55;16.60;;;11.10;;
59273;SDS011;45044;41.572;24.730;2024-02-28T07:54:22;14.68;;;8.75;;
59273;SDS011;45044;41.572;24.730;2024-02-28T07:56:49;12.27;;;7.28;;
59273;SDS011;45044;41.572;24.730;2024-02-28T07:59:16;20.73;;;8.88;;
59273;SDS011;45044;41.572;24.730;2024-02-28T08:01:42;17.00;;;9.40;;
59273;SDS011;45044;41.572;24.730;2024-02-28T08:04:10;16.35;;;10.32;;
59273;SDS011;45044;41.572;24.730;2024-02-28T08:06:37;16.13;;;10.15;;
59273;SDS011;45044;41.572;24.730;2024-02-28T08:09:03;19.42;;;10.07;;
59273;SDS011;45044;41.572;24.730;2024-02-28T08:11:30;18.52;;;10.65;;
59273;SDS011;45044;41.572;24.730;2024-02-28T08:13:57;20.45;;;12.13;;
59273;SDS011;45044;41.572;24.730;2024-02-28T08:16:27;18.95;;;12.68;;
59273;SDS011;45044;41.572;24.730;2024-02-28T08:18:58;19.77;;;13.15;;
59273;SDS011;45044;41.572;24.730;2024-02-28T08:21:26;20.15;;;11.30;;
59273;SDS011;45044;41.572;24.730;2024-02-28T08:23:54;17.90;;;10.38;;
59273;SDS011;45044;41.572;24.730;2024-02-28T08:26:21;18.63;;;9.50;;
59273;SDS011;45044;41.572;24.730;2024-02-28T08:28:49;15.68;;;9.60;;
59273;SDS011;45044;41.572;24.730;2024-02-28T08:31:16;14.35;;;9.10;;
59273;SDS011;45044;41.572;24.730;2024-02-28T08:33:45;13.40;;;8.13;;
59273;SDS011;45044;41.572;24.730;2024-02-28T08:36:12;10.00;;;5.50;;
59273;SDS011;45044;41.572;24.730;2024-02-28T08:38:39;9.38;;;4.72;;
59273;SDS011;45044;41.572;24.730;2024-02-28T08:41:07;9.50;;;4.50;;
59273;SDS011;45044;41.572;24.730;2024-02-28T08:43:37;9.63;;;3.90;;
59273;SDS011;45044;41.572;24.730;2024-02-28T08:46:07;7.22;;;3.10;;
59273;SDS011;45044;41.572;24.730;2024-02-28T08:48:34;7.93;;;3.22;;
59273;SDS011;45044;41.572;24.730;2024-02-28T08:51:04;7.05;;;2.90;;
59273;SDS011;45044;41.572;24.730;2024-02-28T08:53:30;7.28;;;2.67;;
59273;SDS011;45044;41.572;24.730;2024-02-28T08:55:57;4.72;;;2.60;;
59273;SDS011;45044;41.572;24.730;2024-02-28T08:58:24;7.78;;;2.90;;
59273;SDS011;45044;41.572;24.730;2024-02-28T09:00:51;5.55;;;2.33;;
59273;SDS011;45044;41.572;24.730;2024-02-28T09:03:18;4.90;;;2.50;;
59273;SDS011;45044;41.572;24.730;2024-02-28T09:05:48;7.18;;;2.65;;
59273;SDS011;45044;41.572;24.730;2024-02-28T09:08:15;3.83;;;1.55;;
59273;SDS011;45044;41.572;24.730;2024-02-28T09:10:41;4.47;;;1.92;;
59273;SDS011;45044;41.572;24.730;2024-02-28T09:13:08;4.40;;;2.38;;
59273;SDS011;45044;41.572;24.730;2024-02-28T09:15:36;5.05;;;2.47;;
59273;SDS011;45044;41.572;24.730;2024-02-28T09:18:04;7.53;;;3.70;;
59273;SDS011;45044;41.572;24.730;2024-02-28T09:20:31;12.18;;;5.65;;
59273;SDS011;45044;41.572;24.730;2024-02-28T09:22:58;8.65;;;4.10;;
59273;SDS011;45044;41.572;24.730;2024-02-28T09:25:25;9.88;;;3.85;;
59273;SDS011;45044;41.572;24.730;2024-02-28T09:27:54;9.23;;;2.58;;
59273;SDS011;45044;41.572;24.730;2024-02-28T09:30:21;4.57;;;2.45;;
59273;SDS011;45044;41.572;24.730;2024-02-28T09:32:50;5.57;;;2.08;;
59273;SDS011;45044;41.572;24.730;2024-02-28T09:35:17;4.20;;;2.10;;
59273;SDS011;45044;41.572;24.730;2024-02-28T09:37:44;5.72;;;2.22;;
59273;SDS011;45044;41.572;24.730;2024-02-28T09:40:11;4.75;;;1.88;;
59273;SDS011;45044;41.572;24.730;2024-02-28T09:42:39;4.90;;;1.90;;
59273;SDS011;45044;41.572;24.730;2024-02-28T09:45:06;4.28;;;1.83;;
59273;SDS011;45044;41.572;24.730;2024-02-28T09:47:36;3.00;;;1.40;;
59273;SDS011;45044;41.572;24.730;2024-02-28T09:50:03;4.45;;;2.30;;
59273;SDS011;45044;41.572;24.730;2024-02-28T09:52:30;5.13;;;1.95;;
59273;SDS011;45044;41.572;24.730;2024-02-28T09:54:57;5.32;;;2.20;;
59273;SDS011;45044;41.572;24.730;2024-02-28T09:57:25;7.07;;;3.00;;
59273;SDS011;45044;41.572;24.730;2024-02-28T09:59:55;6.00;;;2.72;;
59273;SDS011;45044;41.572;24.730;2024-02-28T10:02:24;5.30;;;1.90;;
59273;SDS011;45044;41.572;24.730;2024-02-28T10:04:52;5.20;;;2.25;;
59273;SDS011;45044;41.572;24.730;2024-02-28T10:07:20;6.15;;;2.75;;
59273;SDS011;45044;41.572;24.730;2024-02-28T10:09:48;7.45;;;2.15;;
59273;SDS011;45044;41.572;24.730;2024-02-28T10:12:25;7.30;;;2.20;;
59273;SDS011;45044;41.572;24.730;2024-02-28T10:14:51;5.78;;;1.45;;
59273;SDS011;45044;41.572;24.730;2024-02-28T10:17:18;5.20;;;1.90;;
59273;SDS011;45044;41.572;24.730;2024-02-28T10:19:45;3.90;;;1.70;;
59273;SDS011;45044;41.572;24.730;2024-02-28T10:22:13;3.97;;;1.70;;
59273;SDS011;45044;41.572;24.730;2024-02-28T10:24:40;7.28;;;2.83;;
59273;SDS011;45044;41.572;24.730;2024-02-28T10:27:06;3.83;;;1.73;;
59273;SDS011;45044;41.572;24.730;2024-02-28T10:29:33;8.35;;;2.83;;
59273;SDS011;45044;41.572;24.730;2024-02-28T10:32:00;5.32;;;2.50;;
59273;SDS011;45044;41.572;24.730;2024-02-28T10:34:29;5.00;;;2.53;;
59273;SDS011;45044;41.572;24.730;2024-02-28T10:36:56;4.53;;;2.28;;
59273;SDS011;45044;41.572;24.730;2024-02-28T10:39:24;7.32;;;4.05;;
59273;SDS011;45044;41.572;24.730;2024-02-28T10:41:53;8.52;;;4.00;;
59273;SDS011;45044;41.572;24.730;2024-02-28T10:44:20;6.20;;;2.53;;
59273;SDS011;45044;41.572;24.730;2024-02-28T10:46:48;10.77;;;5.25;;
59273;SDS011;45044;41.572;24.730;2024-02-28T10:49:16;5.53;;;2.97;;
59273;SDS011;45044;41.572;24.730;2024-02-28T10:51:44;4.70;;;2.30;;
59273;SDS011;45044;41.572;24.730;2024-02-28T10:54:14;6.97;;;2.47;;
59273;SDS011;45044;41.572;24.730;2024-02-28T10:56:42;4.43;;;1.90;;
59273;SDS011;45044;41.572;24.730;2024-02-28T10:59:10;7.60;;;2.50;;
59273;SDS011;45044;41.572;24.730;2024-02-28T11:01:40;5.88;;;2.28;;
59273;SDS011;45044;41.572;24.730;2024-02-28T11:04:12;5.60;;;2.55;;
59273;SDS011;45044;41.572;24.730;2024-02-28T11:06:48;5.90;;;2.33;;
59273;SDS011;45044;41.572;24.730;2024-02-28T11:09:24;6.30;;;2.33;;
59273;SDS011;45044;41.572;24.730;2024-02-28T11:11:52;4.43;;;2.00;;
59273;SDS011;45044;41.572;24.730;2024-02-28T11:14:20;4.55;;;2.00;;
59273;SDS011;45044;41.572;24.730;2024-02-28T11:16:59;6.32;;;2.42;;
59273;SDS011;45044;41.572;24.730;2024-02-28T11:19:29;6.00;;;2.90;;
59273;SDS011;45044;41.572;24.730;2024-02-28T11:22:00;4.75;;;2.38;;
59273;SDS011;45044;41.572;24.730;2024-02-28T11:24:31;6.82;;;3.20;;
59273;SDS011;45044;41.572;24.730;2024-02-28T11:27:00;7.32;;;4.40;;
59273;SDS011;45044;41.572;24.730;2024-02-28T11:29:28;4.35;;;2.10;;
59273;SDS011;45044;41.572;24.730;2024-02-28T11:31:55;5.45;;;2.83;;
59273;SDS011;45044;41.572;24.730;2024-02-28T11:34:22;6.25;;;3.10;;
59273;SDS011;45044;41.572;24.730;2024-02-28T11:36:49;6.03;;;2.38;;
59273;SDS011;45044;41.572;24.730;2024-02-28T11:39:17;5.32;;;2.40;;
59273;SDS011;45044;41.572;24.730;2024-02-28T11:41:45;4.30;;;1.95;;
59273;SDS011;45044;41.572;24.730;2024-02-28T11:44:16;5.28;;;2.70;;
59273;SDS011;45044;41.572;24.730;2024-02-28T11:46:44;8.63;;;4.72;;
59273;SDS011;45044;41.572;24.730;2024-02-28T11:49:12;5.70;;;2.72;;
59273;SDS011;45044;41.572;24.730;2024-02-28T11:51:40;4.38;;;2.03;;
59273;SDS011;45044;41.572;24.730;2024-02-28T11:54:10;6.68;;;2.13;;
59273;SDS011;45044;41.572;24.730;2024-02-28T11:56:38;5.53;;;2.10;;
59273;SDS011;45044;41.572;24.730;2024-02-28T11:59:06;5.53;;;2.15;;
59273;SDS011;45044;41.572;24.730;2024-02-28T12:01:38;4.85;;;2.03;;
59273;SDS011;45044;41.572;24.730;2024-02-28T12:04:07;6.65;;;2.92;;
59273;SDS011;45044;41.572;24.730;2024-02-28T12:06:34;6.35;;;2.28;;
59273;SDS011;45044;41.572;24.730;2024-02-28T12:09:03;4.20;;;1.70;;
59273;SDS011;45044;41.572;24.730;2024-02-28T12:11:31;2.80;;;1.80;;
59273;SDS011;45044;41.572;24.730;2024-02-28T12:13:59;4.40;;;1.70;;
59273;SDS011;45044;41.572;24.730;2024-02-28T12:16:29;3.45;;;2.00;;
59273;SDS011;45044;41.572;24.730;2024-02-28T12:18:56;15.00;;;6.50;;
59273;SDS011;45044;41.572;24.730;2024-02-28T12:21:23;7.05;;;3.40;;
59273;SDS011;45044;41.572;24.730;2024-02-28T12:23:50;10.88;;;4.50;;
59273;SDS011;45044;41.572;24.730;2024-02-28T12:26:17;6.15;;;2.83;;
59273;SDS011;45044;41.572;24.730;2024-02-28T12:28:45;7.35;;;2.83;;
59273;SDS011;45044;41.572;24.730;2024-02-28T12:31:12;3.17;;;2.00;;
59273;SDS011;45044;41.572;24.730;2024-02-28T12:33:40;6.53;;;3.10;;
59273;SDS011;45044;41.572;24.730;2024-02-28T12:36:09;6.30;;;2.47;;
59273;SDS011;45044;41.572;24.730;2024-02-28T12:38:36;5.05;;;2.15;;
59273;SDS011;45044;41.572;24.730;2024-02-28T12:41:03;6.63;;;2.55;;
59273;SDS011;45044;41.572;24.730;2024-02-28T12:43:30;8.77;;;4.57;;
59273;SDS011;45044;41.572;24.730;2024-02-28T12:45:58;8.13;;;3.88;;
59273;SDS011;45044;41.572;24.730;2024-02-28T12:48:26;7.80;;;4.15;;
59273;SDS011;45044;41.572;24.730;2024-02-28T12:50:53;10.63;;;6.57;;
59273;SDS011;45044;41.572;24.730;2024-02-28T12:53:20;7.75;;;3.95;;
59273;SDS011;45044;41.572;24.730;2024-02-28T12:55:48;7.78;;;4.05;;
59273;SDS011;45044;41.572;24.730;2024-02-28T12:58:15;5.70;;;3.00;;
59273;SDS011;45044;41.572;24.730;2024-02-28T13:00:44;7.97;;;3.90;;
59273;SDS011;45044;41.572;24.730;2024-02-28T13:03:11;8.50;;;4.35;;
59273;SDS011;45044;41.572;24.730;2024-02-28T13:05:38;6.78;;;3.88;;
59273;SDS011;45044;41.572;24.730;2024-02-28T13:08:05;5.40;;;2.75;;
59273;SDS011;45044;41.572;24.730;2024-02-28T13:10:32;4.72;;;2.65;;
59273;SDS011;45044;41.572;24.730;2024-02-28T13:13:02;6.28;;;3.05;;
59273;SDS011;45044;41.572;24.730;2024-02-28T13:15:29;7.75;;;4.10;;
59273;SDS011;45044;41.572;24.730;2024-02-28T13:17:56;9.60;;;3.70;;
59273;SDS011;45044;41.572;24.730;2024-02-28T13:20:24;6.30;;;2.60;;
59273;SDS011;45044;41.572;24.730;2024-02-28T13:22:51;4.63;;;2.65;;
59273;SDS011;45044;41.572;24.730;2024-02-28T13:25:18;5.80;;;3.42;;
59273;SDS011;45044;41.572;24.730;2024-02-28T13:27:47;11.63;;;7.15;;
59273;SDS011;45044;41.572;24.730;2024-02-28T13:30:13;6.53;;;3.35;;
59273;SDS011;45044;41.572;24.730;2024-02-28T13:32:43;6.18;;;3.00;;
59273;SDS011;45044;41.572;24.730;2024-02-28T13:35:15;9.15;;;4.95;;
59273;SDS011;45044;41.572;24.730;2024-02-28T13:37:42;5.80;;;3.97;;
59273;SDS011;45044;41.572;24.730;2024-02-28T13:40:09;8.80;;;4.10;;
59273;SDS011;45044;41.572;24.730;2024-02-28T13:42:39;6.43;;;3.30;;
59273;SDS011;45044;41.572;24.730;2024-02-28T13:45:07;7.43;;;3.45;;
59273;SDS011;45044;41.572;24.730;2024-02-28T13:47:36;5.88;;;2.40;;
59273;SDS011;45044;41.572;24.730;2024-02-28T13:50:02;8.57;;;5.10;;
59273;SDS011;45044;41.572;24.730;2024-02-28T13:52:37;8.23;;;4.35;;
59273;SDS011;45044;41.572;24.730;2024-02-28T13:55:03;10.18;;;5.35;;
59273;SDS011;45044;41.572;24.730;2024-02-28T13:57:31;9.63;;;6.50;;
59273;SDS011;45044;41.572;24.730;2024-02-28T13:59:59;8.88;;;5.85;;
59273;SDS011;45044;41.572;24.730;2024-02-28T14:02:25;8.40;;;5.88;;
59273;SDS011;45044;41.572;24.730;2024-02-28T14:04:53;13.43;;;10.38;;
59273;SDS011;45044;41.572;24.730;2024-02-28T14:07:21;9.90;;;5.00;;
59273;SDS011;45044;41.572;24.730;2024-02-28T14:09:47;15.90;;;9.77;;
59273;SDS011;45044;41.572;24.730;2024-02-28T14:12:16;17.85;;;11.50;;
59273;SDS011;45044;41.572;24.730;2024-02-28T14:14:43;17.90;;;13.48;;
59273;SDS011;45044;41.572;24.730;2024-02-28T14:17:10;13.75;;;8.00;;
59273;SDS011;45044;41.572;24.730;2024-02-28T14:19:37;15.68;;;11.73;;
59273;SDS011;45044;41.572;24.730;2024-02-28T14:22:03;21.02;;;12.90;;